Ana Sayfa
METAR-TAF:

METAR-TAF

Havaalanları :

Mahajanga, Madagaskar

Enlem: 15-40S, Boylam: 046-21E, yükseklik: 26 m

Güncel hava durumu gözlemi

Rapor saat 05:00 UTC de 38 dakika önce yapıldı.
Rüzgar doğu/güneydoğudan 4 kt
Sıcaklık 28°C
Nem 74%
Basınç 1012 hPa
Görüş mesafesi 10 km veya daha fazla
2000 ft yükseklikte az bulutlu, Kümülonimbus.

METAR: FMNM 260500Z 12004KT 9999 FEW020CB 28/23 Q1012 NOSIG

Saat: 08:38 (05:38 UTC)

Tahmin

Rapor saat 23:00 UTC de 6 saat ve 38 dakika önce yapıldı.
Ayın 26'si saat 00 UTC'den ayın 26'si saat 24 UTC'ye kadar geçerli Tahmin
Rüzgar güneydoğudan 5 kt
Görüş mesafesi 10 km veya daha fazla
2000 ft yükseklikte az bulutlu, Kümülonimbus.
4000 ft yükseklikte parçalı bulutlu

TAF: FMNM 252300Z 2600/2624 14005KT 9999 FEW020CB SCT040

4.000'den fazla havaalanı için hava durumu gözlemleri ve tahminleri (METAR ve TAF raporları).

Kullanılabilir istasyonlar harita üzerinde sarı ve kırmızı noktalarla gösterilir.

İstasyonun adını görmek için fareyi noktanın üzerinde gezdirin.

Sonrasında hava gözlem ve tahminlerini görmek için tıklayın.

Haritayı değiştirmek için: yaklaştırmak için siyah artı işaretli yeşil düğmeye ve uzaklaştırmak için de eksi işaretli düğmeye hızla tıklayın; bitişik haritalar için yeşil okları kullanın.


METAR-TAF: